sensor_id;sensor_type;location;lat;lon;timestamp;pressure;altitude;pressure_sealevel;temperature;humidity
35716;BME280;21840;44.920;8.616;2022-07-17T00:00:51;100459.00;;;32.12;42.12
35716;BME280;21840;44.920;8.616;2022-07-17T00:03:17;100458.44;;;32.20;42.02
35716;BME280;21840;44.920;8.616;2022-07-17T00:05:44;100460.06;;;32.16;41.77
35716;BME280;21840;44.920;8.616;2022-07-17T00:08:11;100458.69;;;32.24;41.90
35716;BME280;21840;44.920;8.616;2022-07-17T00:10:39;100460.91;;;32.12;42.69
35716;BME280;21840;44.920;8.616;2022-07-17T00:13:05;100464.97;;;32.09;43.39
35716;BME280;21840;44.920;8.616;2022-07-17T00:15:32;100457.94;;;31.93;44.11
35716;BME280;21840;44.920;8.616;2022-07-17T00:17:58;100458.47;;;32.00;43.73
35716;BME280;21840;44.920;8.616;2022-07-17T00:20:25;100458.22;;;31.96;43.75
35716;BME280;21840;44.920;8.616;2022-07-17T00:22:53;100460.66;;;31.93;43.55
35716;BME280;21840;44.920;8.616;2022-07-17T00:25:20;100460.38;;;31.84;43.67
35716;BME280;21840;44.920;8.616;2022-07-17T00:27:46;100454.19;;;31.63;44.51
35716;BME280;21840;44.920;8.616;2022-07-17T00:30:12;100456.63;;;31.59;45.14
35716;BME280;21840;44.920;8.616;2022-07-17T00:32:38;100453.09;;;31.54;44.83
35716;BME280;21840;44.920;8.616;2022-07-17T00:35:04;100455.00;;;31.43;45.29
35716;BME280;21840;44.920;8.616;2022-07-17T00:37:29;100453.91;;;31.44;45.48
35716;BME280;21840;44.920;8.616;2022-07-17T00:39:55;100446.56;;;31.45;45.72
35716;BME280;21840;44.920;8.616;2022-07-17T00:42:21;100450.06;;;31.25;45.91
35716;BME280;21840;44.920;8.616;2022-07-17T00:44:46;100450.63;;;31.27;45.85
35716;BME280;21840;44.920;8.616;2022-07-17T00:49:39;100451.41;;;31.07;46.09
35716;BME280;21840;44.920;8.616;2022-07-17T00:52:06;100451.97;;;31.19;45.56
35716;BME280;21840;44.920;8.616;2022-07-17T00:54:35;100457.94;;;31.16;45.59
35716;BME280;21840;44.920;8.616;2022-07-17T00:57:05;100452.53;;;31.21;45.95
35716;BME280;21840;44.920;8.616;2022-07-17T00:59:32;100463.91;;;31.08;46.41
35716;BME280;21840;44.920;8.616;2022-07-17T01:01:59;100468.78;;;31.11;46.00
35716;BME280;21840;44.920;8.616;2022-07-17T01:04:24;100465.84;;;31.28;45.43
35716;BME280;21840;44.920;8.616;2022-07-17T01:06:50;100462.06;;;31.39;45.37
35716;BME280;21840;44.920;8.616;2022-07-17T01:09:15;100468.50;;;31.07;46.33
35716;BME280;21840;44.920;8.616;2022-07-17T01:11:41;100474.47;;;31.14;46.09
35716;BME280;21840;44.920;8.616;2022-07-17T01:14:07;100473.69;;;31.19;46.04
35716;BME280;21840;44.920;8.616;2022-07-17T01:16:33;100482.06;;;31.12;46.32
35716;BME280;21840;44.920;8.616;2022-07-17T01:18:58;100478.84;;;31.15;46.50
35716;BME280;21840;44.920;8.616;2022-07-17T01:21:24;100483.97;;;31.17;46.54
35716;BME280;21840;44.920;8.616;2022-07-17T01:23:50;100492.38;;;31.05;46.79
35716;BME280;21840;44.920;8.616;2022-07-17T01:26:16;100499.09;;;30.87;47.11
35716;BME280;21840;44.920;8.616;2022-07-17T01:28:41;100494.94;;;30.69;47.52
35716;BME280;21840;44.920;8.616;2022-07-17T01:31:07;100500.09;;;30.66;47.49
35716;BME280;21840;44.920;8.616;2022-07-17T01:33:32;100501.19;;;30.70;47.40
35716;BME280;21840;44.920;8.616;2022-07-17T01:35:58;100503.13;;;30.80;47.27
35716;BME280;21840;44.920;8.616;2022-07-17T01:38:23;100504.25;;;30.84;46.75
35716;BME280;21840;44.920;8.616;2022-07-17T01:40:49;100500.16;;;30.81;46.90
35716;BME280;21840;44.920;8.616;2022-07-17T01:43:16;100505.88;;;30.85;46.90
35716;BME280;21840;44.920;8.616;2022-07-17T01:45:42;100509.44;;;30.90;46.67
35716;BME280;21840;44.920;8.616;2022-07-17T01:48:08;100516.47;;;30.86;46.75
35716;BME280;21840;44.920;8.616;2022-07-17T01:50:34;100509.69;;;30.89;46.61
35716;BME280;21840;44.920;8.616;2022-07-17T01:52:59;100515.66;;;30.86;46.71
35716;BME280;21840;44.920;8.616;2022-07-17T01:55:25;100519.38;;;30.74;46.91
35716;BME280;21840;44.920;8.616;2022-07-17T01:57:50;100521.06;;;30.86;46.42
35716;BME280;21840;44.920;8.616;2022-07-17T02:00:17;100524.34;;;30.88;46.53
35716;BME280;21840;44.920;8.616;2022-07-17T02:02:44;100521.53;;;30.78;46.54
35716;BME280;21840;44.920;8.616;2022-07-17T02:05:10;100528.13;;;30.87;46.40
35716;BME280;21840;44.920;8.616;2022-07-17T02:07:36;100526.50;;;30.86;46.54
35716;BME280;21840;44.920;8.616;2022-07-17T02:10:06;100529.41;;;30.79;46.38
35716;BME280;21840;44.920;8.616;2022-07-17T02:12:32;100527.00;;;30.83;46.27
35716;BME280;21840;44.920;8.616;2022-07-17T02:14:57;100521.06;;;30.86;46.45
35716;BME280;21840;44.920;8.616;2022-07-17T02:17:22;100534.63;;;30.86;46.37
35716;BME280;21840;44.920;8.616;2022-07-17T02:19:48;100534.59;;;30.81;46.31
35716;BME280;21840;44.920;8.616;2022-07-17T02:22:14;100530.16;;;30.64;46.55
35716;BME280;21840;44.920;8.616;2022-07-17T02:24:39;100530.81;;;30.87;46.22
35716;BME280;21840;44.920;8.616;2022-07-17T02:27:05;100536.19;;;30.77;46.13
35716;BME280;21840;44.920;8.616;2022-07-17T02:29:30;100532.19;;;30.89;45.69
35716;BME280;21840;44.920;8.616;2022-07-17T02:31:56;100539.53;;;30.89;46.01
35716;BME280;21840;44.920;8.616;2022-07-17T02:34:21;100539.72;;;30.77;45.89
35716;BME280;21840;44.920;8.616;2022-07-17T02:36:50;100532.91;;;30.74;46.80
35716;BME280;21840;44.920;8.616;2022-07-17T02:39:15;100533.09;;;30.52;48.44
35716;BME280;21840;44.920;8.616;2022-07-17T02:41:41;100533.28;;;30.36;48.55
35716;BME280;21840;44.920;8.616;2022-07-17T02:44:06;100536.13;;;30.19;49.43
35716;BME280;21840;44.920;8.616;2022-07-17T02:46:32;100539.50;;;30.36;48.59
35716;BME280;21840;44.920;8.616;2022-07-17T02:48:57;100547.50;;;30.16;49.05
35716;BME280;21840;44.920;8.616;2022-07-17T02:51:23;100537.69;;;30.09;49.36
35716;BME280;21840;44.920;8.616;2022-07-17T02:53:48;100545.00;;;30.09;49.15
35716;BME280;21840;44.920;8.616;2022-07-17T02:56:14;100546.91;;;29.76;49.79
35716;BME280;21840;44.920;8.616;2022-07-17T02:58:39;100541.63;;;29.92;48.86
35716;BME280;21840;44.920;8.616;2022-07-17T03:01:05;100546.31;;;30.01;48.78
35716;BME280;21840;44.920;8.616;2022-07-17T03:03:31;100550.78;;;29.85;49.67
35716;BME280;21840;44.920;8.616;2022-07-17T03:05:56;100548.44;;;29.99;49.01
35716;BME280;21840;44.920;8.616;2022-07-17T03:08:22;100551.78;;;29.74;49.97
35716;BME280;21840;44.920;8.616;2022-07-17T03:10:47;100557.59;;;29.88;50.02
35716;BME280;21840;44.920;8.616;2022-07-17T03:13:13;100559.16;;;29.84;49.72
35716;BME280;21840;44.920;8.616;2022-07-17T03:15:38;100555.06;;;29.54;50.35
35716;BME280;21840;44.920;8.616;2022-07-17T03:18:04;100553.22;;;29.60;50.20
35716;BME280;21840;44.920;8.616;2022-07-17T03:20:29;100550.69;;;29.48;50.38
35716;BME280;21840;44.920;8.616;2022-07-17T03:22:55;100556.31;;;29.69;49.92
35716;BME280;21840;44.920;8.616;2022-07-17T03:25:20;100550.19;;;29.51;50.57
35716;BME280;21840;44.920;8.616;2022-07-17T03:27:46;100554.56;;;29.57;50.78
35716;BME280;21840;44.920;8.616;2022-07-17T03:30:11;100560.59;;;29.37;50.95
35716;BME280;21840;44.920;8.616;2022-07-17T03:32:37;100564.56;;;29.57;50.55
35716;BME280;21840;44.920;8.616;2022-07-17T03:35:02;100558.50;;;29.72;50.17
35716;BME280;21840;44.920;8.616;2022-07-17T03:37:28;100569.59;;;29.70;50.00
35716;BME280;21840;44.920;8.616;2022-07-17T03:39:57;100566.81;;;29.65;50.46
35716;BME280;21840;44.920;8.616;2022-07-17T03:42:22;100573.16;;;29.49;51.14
35716;BME280;21840;44.920;8.616;2022-07-17T03:44:48;100579.53;;;29.15;51.78
35716;BME280;21840;44.920;8.616;2022-07-17T03:47:13;100572.69;;;29.08;51.88
35716;BME280;21840;44.920;8.616;2022-07-17T03:49:39;100577.22;;;29.24;51.78
35716;BME280;21840;44.920;8.616;2022-07-17T03:52:05;100566.66;;;29.50;51.53
35716;BME280;21840;44.920;8.616;2022-07-17T03:54:30;100582.34;;;29.48;51.48
35716;BME280;21840;44.920;8.616;2022-07-17T03:56:56;100582.56;;;29.19;52.59
35716;BME280;21840;44.920;8.616;2022-07-17T03:59:22;100588.22;;;29.39;51.72
35716;BME280;21840;44.920;8.616;2022-07-17T04:01:48;100585.00;;;29.20;52.15
35716;BME280;21840;44.920;8.616;2022-07-17T04:04:14;100579.19;;;29.29;51.75
35716;BME280;21840;44.920;8.616;2022-07-17T04:06:39;100580.28;;;29.33;51.46
35716;BME280;21840;44.920;8.616;2022-07-17T04:09:05;100583.16;;;29.48;50.74
35716;BME280;21840;44.920;8.616;2022-07-17T04:11:30;100588.13;;;29.56;50.82
35716;BME280;21840;44.920;8.616;2022-07-17T04:13:56;100593.53;;;29.56;50.49
35716;BME280;21840;44.920;8.616;2022-07-17T04:16:21;100589.75;;;29.57;50.67
35716;BME280;21840;44.920;8.616;2022-07-17T04:18:47;100607.25;;;29.50;50.61
35716;BME280;21840;44.920;8.616;2022-07-17T04:21:13;100605.16;;;29.57;50.46
35716;BME280;21840;44.920;8.616;2022-07-17T04:23:39;100608.06;;;29.50;50.09
35716;BME280;21840;44.920;8.616;2022-07-17T04:26:05;100622.56;;;29.39;50.58
35716;BME280;21840;44.920;8.616;2022-07-17T04:28:32;100621.00;;;29.21;50.87
35716;BME280;21840;44.920;8.616;2022-07-17T04:30:58;100622.22;;;29.08;51.32
35716;BME280;21840;44.920;8.616;2022-07-17T04:33:23;100620.84;;;29.33;50.64
35716;BME280;21840;44.920;8.616;2022-07-17T04:35:49;100621.97;;;29.59;50.52
35716;BME280;21840;44.920;8.616;2022-07-17T04:38:15;100627.47;;;29.42;50.74
35716;BME280;21840;44.920;8.616;2022-07-17T04:40:40;100628.59;;;29.68;49.92
35716;BME280;21840;44.920;8.616;2022-07-17T04:43:06;100638.84;;;29.66;49.86
35716;BME280;21840;44.920;8.616;2022-07-17T04:45:32;100632.28;;;29.62;50.34
35716;BME280;21840;44.920;8.616;2022-07-17T04:47:58;100640.75;;;29.43;50.54
35716;BME280;21840;44.920;8.616;2022-07-17T04:50:24;100643.19;;;29.45;50.36
35716;BME280;21840;44.920;8.616;2022-07-17T04:52:50;100650.03;;;29.53;50.06
35716;BME280;21840;44.920;8.616;2022-07-17T04:55:15;100647.44;;;29.36;50.81
35716;BME280;21840;44.920;8.616;2022-07-17T04:57:41;100655.91;;;29.22;51.15
35716;BME280;21840;44.920;8.616;2022-07-17T05:00:08;100653.53;;;29.48;50.34
35716;BME280;21840;44.920;8.616;2022-07-17T05:02:34;100659.81;;;29.54;50.24
35716;BME280;21840;44.920;8.616;2022-07-17T05:05:01;100660.91;;;29.58;50.01
35716;BME280;21840;44.920;8.616;2022-07-17T05:07:27;100659.34;;;29.62;49.97
35716;BME280;21840;44.920;8.616;2022-07-17T05:09:52;100657.84;;;29.49;50.02
35716;BME280;21840;44.920;8.616;2022-07-17T05:12:18;100668.22;;;29.57;49.65
35716;BME280;21840;44.920;8.616;2022-07-17T05:14:43;100668.78;;;29.59;49.78
35716;BME280;21840;44.920;8.616;2022-07-17T05:17:09;100669.19;;;29.46;49.96
35716;BME280;21840;44.920;8.616;2022-07-17T05:19:35;100674.03;;;29.66;49.65
35716;BME280;21840;44.920;8.616;2022-07-17T05:22:01;100674.63;;;29.68;49.72
35716;BME280;21840;44.920;8.616;2022-07-17T05:24:27;100674.34;;;29.97;48.99
35716;BME280;21840;44.920;8.616;2022-07-17T05:26:52;100683.94;;;29.82;49.43
35716;BME280;21840;44.920;8.616;2022-07-17T05:29:18;100683.66;;;30.06;48.84
35716;BME280;21840;44.920;8.616;2022-07-17T05:31:43;100690.13;;;30.32;48.20
35716;BME280;21840;44.920;8.616;2022-07-17T05:34:09;100693.66;;;30.33;48.01
35716;BME280;21840;44.920;8.616;2022-07-17T05:36:37;100688.63;;;30.46;47.32
35716;BME280;21840;44.920;8.616;2022-07-17T05:39:03;100697.91;;;30.56;47.35
35716;BME280;21840;44.920;8.616;2022-07-17T05:41:29;100702.41;;;30.45;47.20
35716;BME280;21840;44.920;8.616;2022-07-17T05:43:57;100704.44;;;30.60;47.15
35716;BME280;21840;44.920;8.616;2022-07-17T05:46:23;100703.94;;;30.30;47.72
35716;BME280;21840;44.920;8.616;2022-07-17T05:48:48;100705.75;;;30.52;47.30
35716;BME280;21840;44.920;8.616;2022-07-17T05:51:14;100703.72;;;30.74;46.72
35716;BME280;21840;44.920;8.616;2022-07-17T05:53:39;100708.63;;;30.78;46.77
35716;BME280;21840;44.920;8.616;2022-07-17T05:56:05;100713.78;;;30.79;46.68
35716;BME280;21840;44.920;8.616;2022-07-17T05:58:31;100715.69;;;30.79;46.87
35716;BME280;21840;44.920;8.616;2022-07-17T06:00:56;100718.19;;;30.48;47.81
35716;BME280;21840;44.920;8.616;2022-07-17T06:03:22;100715.00;;;30.56;47.42
35716;BME280;21840;44.920;8.616;2022-07-17T06:05:47;100719.13;;;30.64;47.36
35716;BME280;21840;44.920;8.616;2022-07-17T06:08:13;100723.03;;;30.78;47.11
35716;BME280;21840;44.920;8.616;2022-07-17T06:10:38;100716.38;;;30.96;46.50
35716;BME280;21840;44.920;8.616;2022-07-17T06:13:05;100718.31;;;31.01;46.68
35716;BME280;21840;44.920;8.616;2022-07-17T06:15:30;100724.06;;;31.14;46.17
35716;BME280;21840;44.920;8.616;2022-07-17T06:18:03;100719.75;;;31.13;46.48
35716;BME280;21840;44.920;8.616;2022-07-17T06:20:29;100724.50;;;31.38;45.66
35716;BME280;21840;44.920;8.616;2022-07-17T06:22:56;100724.72;;;31.37;45.87
35716;BME280;21840;44.920;8.616;2022-07-17T06:25:22;100720.00;;;31.17;46.59
35716;BME280;21840;44.920;8.616;2022-07-17T06:27:50;100722.00;;;31.37;45.90
35716;BME280;21840;44.920;8.616;2022-07-17T06:30:17;100729.34;;;31.36;46.20
35716;BME280;21840;44.920;8.616;2022-07-17T06:32:43;100720.34;;;31.26;46.43
35716;BME280;21840;44.920;8.616;2022-07-17T06:35:09;100729.94;;;31.44;46.03
35716;BME280;21840;44.920;8.616;2022-07-17T06:37:38;100734.09;;;31.62;45.74
35716;BME280;21840;44.920;8.616;2022-07-17T06:40:04;100726.28;;;31.75;45.55
35716;BME280;21840;44.920;8.616;2022-07-17T06:42:30;100740.09;;;31.74;45.34
35716;BME280;21840;44.920;8.616;2022-07-17T06:44:59;100736.06;;;31.87;44.96
35716;BME280;21840;44.920;8.616;2022-07-17T06:47:24;100738.50;;;31.83;45.04
35716;BME280;21840;44.920;8.616;2022-07-17T06:49:50;100732.53;;;31.86;45.19
35716;BME280;21840;44.920;8.616;2022-07-17T06:52:15;100734.22;;;31.97;44.84
35716;BME280;21840;44.920;8.616;2022-07-17T06:54:41;100743.22;;;32.13;44.75
35716;BME280;21840;44.920;8.616;2022-07-17T06:57:06;100743.22;;;32.18;44.62
35716;BME280;21840;44.920;8.616;2022-07-17T06:59:34;100751.94;;;32.36;44.20
35716;BME280;21840;44.920;8.616;2022-07-17T07:02:00;100752.22;;;32.50;43.96
35716;BME280;21840;44.920;8.616;2022-07-17T07:04:25;100750.06;;;32.57;43.75
35716;BME280;21840;44.920;8.616;2022-07-17T07:06:51;100753.06;;;32.65;43.61
35716;BME280;21840;44.920;8.616;2022-07-17T07:09:16;100760.34;;;32.39;44.02
35716;BME280;21840;44.920;8.616;2022-07-17T07:11:42;100754.91;;;32.19;44.47
35716;BME280;21840;44.920;8.616;2022-07-17T07:14:08;100753.31;;;32.54;43.84
35716;BME280;21840;44.920;8.616;2022-07-17T07:16:35;100758.78;;;32.59;44.06
35716;BME280;21840;44.920;8.616;2022-07-17T07:19:01;100760.13;;;32.61;44.25
35716;BME280;21840;44.920;8.616;2022-07-17T07:21:26;100763.94;;;32.81;43.40
35716;BME280;21840;44.920;8.616;2022-07-17T07:23:53;100762.84;;;32.72;43.34
35716;BME280;21840;44.920;8.616;2022-07-17T07:26:19;100763.13;;;32.80;43.43
35716;BME280;21840;44.920;8.616;2022-07-17T07:28:45;100766.88;;;32.90;43.62
35716;BME280;21840;44.920;8.616;2022-07-17T07:31:11;100765.28;;;32.73;43.83
35716;BME280;21840;44.920;8.616;2022-07-17T07:33:37;100762.84;;;32.66;44.10
35716;BME280;21840;44.920;8.616;2022-07-17T07:36:04;100759.03;;;32.83;43.52
35716;BME280;21840;44.920;8.616;2022-07-17T07:38:30;100769.09;;;32.77;43.67
35716;BME280;21840;44.920;8.616;2022-07-17T07:40:58;100766.09;;;33.04;43.28
35716;BME280;21840;44.920;8.616;2022-07-17T07:43:24;100768.25;;;32.97;43.11
35716;BME280;21840;44.920;8.616;2022-07-17T07:45:49;100767.16;;;33.14;42.94
35716;BME280;21840;44.920;8.616;2022-07-17T07:48:15;100767.97;;;33.14;42.79
35716;BME280;21840;44.920;8.616;2022-07-17T07:50:41;100781.59;;;33.04;42.38
35716;BME280;21840;44.920;8.616;2022-07-17T07:53:06;100782.69;;;32.93;42.22
35716;BME280;21840;44.920;8.616;2022-07-17T07:55:32;100784.03;;;33.00;41.98
35716;BME280;21840;44.920;8.616;2022-07-17T07:58:02;100780.22;;;32.91;41.95
35716;BME280;21840;44.920;8.616;2022-07-17T08:00:28;100784.84;;;32.96;41.93
35716;BME280;21840;44.920;8.616;2022-07-17T08:02:54;100783.50;;;32.88;42.46
35716;BME280;21840;44.920;8.616;2022-07-17T08:05:20;100783.22;;;33.05;42.08
35716;BME280;21840;44.920;8.616;2022-07-17T08:07:45;100790.31;;;33.11;41.94
35716;BME280;21840;44.920;8.616;2022-07-17T08:10:11;100793.56;;;32.93;42.48
35716;BME280;21840;44.920;8.616;2022-07-17T08:12:36;100788.66;;;33.15;42.08
35716;BME280;21840;44.920;8.616;2022-07-17T08:15:04;100786.72;;;33.31;41.63
35716;BME280;21840;44.920;8.616;2022-07-17T08:17:32;100790.53;;;33.30;41.30
35716;BME280;21840;44.920;8.616;2022-07-17T08:19:58;100790.75;;;33.44;41.04
35716;BME280;21840;44.920;8.616;2022-07-17T08:22:23;100793.22;;;33.40;41.08
35716;BME280;21840;44.920;8.616;2022-07-17T08:24:49;100791.53;;;33.49;41.02
35716;BME280;21840;44.920;8.616;2022-07-17T08:27:14;100796.97;;;33.70;40.60
35716;BME280;21840;44.920;8.616;2022-07-17T08:29:40;100795.81;;;33.81;40.09
35716;BME280;21840;44.920;8.616;2022-07-17T08:32:05;100803.44;;;33.79;39.39
35716;BME280;21840;44.920;8.616;2022-07-17T08:34:31;100807.53;;;33.77;38.93
35716;BME280;21840;44.920;8.616;2022-07-17T08:36:56;100802.88;;;33.82;37.69
35716;BME280;21840;44.920;8.616;2022-07-17T08:39:22;100816.53;;;33.72;37.63
35716;BME280;21840;44.920;8.616;2022-07-17T08:41:51;100813.06;;;33.61;37.41
35716;BME280;21840;44.920;8.616;2022-07-17T08:44:16;100813.59;;;33.63;37.41
35716;BME280;21840;44.920;8.616;2022-07-17T08:46:43;100818.47;;;33.71;36.78
35716;BME280;21840;44.920;8.616;2022-07-17T08:49:10;100816.78;;;33.81;36.44
35716;BME280;21840;44.920;8.616;2022-07-17T08:51:37;100816.09;;;34.14;35.96
35716;BME280;21840;44.920;8.616;2022-07-17T08:54:05;100824.31;;;34.04;35.21
35716;BME280;21840;44.920;8.616;2022-07-17T08:56:30;100817.53;;;33.97;34.80
35716;BME280;21840;44.920;8.616;2022-07-17T08:58:56;100820.50;;;34.10;34.71
35716;BME280;21840;44.920;8.616;2022-07-17T09:01:22;100821.06;;;34.07;34.37
35716;BME280;21840;44.920;8.616;2022-07-17T09:04:04;100828.69;;;34.10;34.10
35716;BME280;21840;44.920;8.616;2022-07-17T09:06:37;100821.53;;;34.14;33.90
35716;BME280;21840;44.920;8.616;2022-07-17T09:09:10;100824.78;;;34.22;33.54
35716;BME280;21840;44.920;8.616;2022-07-17T09:11:46;100824.72;;;34.32;32.90
35716;BME280;21840;44.920;8.616;2022-07-17T09:14:12;100821.56;;;34.59;32.49
35716;BME280;21840;44.920;8.616;2022-07-17T09:16:54;100818.03;;;34.53;31.95
35716;BME280;21840;44.920;8.616;2022-07-17T09:19:44;100815.25;;;34.64;31.79
35716;BME280;21840;44.920;8.616;2022-07-17T09:22:15;100819.28;;;34.71;31.58
35716;BME280;21840;44.920;8.616;2022-07-17T09:24:46;100817.88;;;34.74;31.75
35716;BME280;21840;44.920;8.616;2022-07-17T09:27:34;100813.03;;;35.00;31.83
35716;BME280;21840;44.920;8.616;2022-07-17T09:30:09;100813.41;;;34.88;31.17
35716;BME280;21840;44.920;8.616;2022-07-17T09:32:40;100821.88;;;34.87;31.40
35716;BME280;21840;44.920;8.616;2022-07-17T09:35:08;100824.56;;;34.92;30.83
35716;BME280;21840;44.920;8.616;2022-07-17T09:37:34;100822.97;;;34.86;30.68
35716;BME280;21840;44.920;8.616;2022-07-17T09:40:00;100821.88;;;34.87;30.97
35716;BME280;21840;44.920;8.616;2022-07-17T09:42:32;100816.91;;;34.94;30.80
35716;BME280;21840;44.920;8.616;2022-07-17T09:45:03;100812.91;;;35.15;30.94
35716;BME280;21840;44.920;8.616;2022-07-17T09:47:29;100818.19;;;35.31;31.09
35716;BME280;21840;44.920;8.616;2022-07-17T09:49:57;100817.84;;;35.13;31.57
35716;BME280;21840;44.920;8.616;2022-07-17T09:52:28;100805.25;;;35.17;32.38
35716;BME280;21840;44.920;8.616;2022-07-17T09:54:56;100825.81;;;35.10;31.03
35716;BME280;21840;44.920;8.616;2022-07-17T09:57:25;100819.31;;;35.00;31.79
35716;BME280;21840;44.920;8.616;2022-07-17T09:59:53;100817.84;;;35.13;31.72
35716;BME280;21840;44.920;8.616;2022-07-17T10:02:20;100823.25;;;35.18;32.34
35716;BME280;21840;44.920;8.616;2022-07-17T10:04:46;100821.44;;;35.04;32.95
35716;BME280;21840;44.920;8.616;2022-07-17T10:07:12;100826.16;;;34.98;33.15
35716;BME280;21840;44.920;8.616;2022-07-17T10:09:38;100814.72;;;35.25;32.82
35716;BME280;21840;44.920;8.616;2022-07-17T10:12:06;100813.53;;;35.02;33.49
35716;BME280;21840;44.920;8.616;2022-07-17T10:14:32;100822.19;;;35.14;33.51
35716;BME280;21840;44.920;8.616;2022-07-17T10:17:06;100824.88;;;35.43;33.04
35716;BME280;21840;44.920;8.616;2022-07-17T10:19:32;100827.84;;;35.23;33.57
35716;BME280;21840;44.920;8.616;2022-07-17T10:22:00;100831.84;;;35.01;33.71
35716;BME280;21840;44.920;8.616;2022-07-17T10:24:29;100828.22;;;35.11;33.48
35716;BME280;21840;44.920;8.616;2022-07-17T10:26:56;100824.13;;;35.38;33.37
35716;BME280;21840;44.920;8.616;2022-07-17T10:29:33;100822.31;;;35.28;33.35
35716;BME280;21840;44.920;8.616;2022-07-17T10:32:02;100832.88;;;35.11;33.95
35716;BME280;21840;44.920;8.616;2022-07-17T10:37:17;100811.41;;;35.28;32.98
35716;BME280;21840;44.920;8.616;2022-07-17T10:40:06;100829.03;;;35.12;33.15
35716;BME280;21840;44.920;8.616;2022-07-17T10:42:50;100821.91;;;35.16;32.97
35716;BME280;21840;44.920;8.616;2022-07-17T10:50:21;100822.06;;;34.95;32.59
35716;BME280;21840;44.920;8.616;2022-07-17T10:55:34;100825.16;;;35.18;32.21
35716;BME280;21840;44.920;8.616;2022-07-17T10:58:00;100822.50;;;35.08;32.56
35716;BME280;21840;44.920;8.616;2022-07-17T11:00:26;100824.31;;;35.22;32.68
35716;BME280;21840;44.920;8.616;2022-07-17T11:02:52;100814.44;;;35.51;31.78
35716;BME280;21840;44.920;8.616;2022-07-17T11:05:18;100826.50;;;35.44;31.63
35716;BME280;21840;44.920;8.616;2022-07-17T11:07:54;100822.41;;;35.71;31.50
35716;BME280;21840;44.920;8.616;2022-07-17T11:10:21;100820.19;;;35.73;30.90
35716;BME280;21840;44.920;8.616;2022-07-17T11:12:47;100814.19;;;35.47;31.18
35716;BME280;21840;44.920;8.616;2022-07-17T11:15:12;100817.59;;;35.63;30.68
35716;BME280;21840;44.920;8.616;2022-07-17T11:17:48;100822.44;;;35.42;31.03
35716;BME280;21840;44.920;8.616;2022-07-17T11:20:15;100817.41;;;35.78;31.02
35716;BME280;21840;44.920;8.616;2022-07-17T11:22:42;100813.34;;;35.76;30.81
35716;BME280;21840;44.920;8.616;2022-07-17T11:25:08;100819.72;;;35.90;30.58
35716;BME280;21840;44.920;8.616;2022-07-17T11:27:35;100824.88;;;35.92;30.45
35716;BME280;21840;44.920;8.616;2022-07-17T11:30:02;100807.31;;;35.98;30.30
35716;BME280;21840;44.920;8.616;2022-07-17T11:32:35;100813.44;;;35.90;30.92
35716;BME280;21840;44.920;8.616;2022-07-17T11:35:13;100811.19;;;35.92;30.61
35716;BME280;21840;44.920;8.616;2022-07-17T11:37:38;100810.38;;;36.15;29.77
35716;BME280;21840;44.920;8.616;2022-07-17T11:40:04;100796.06;;;36.56;29.39
35716;BME280;21840;44.920;8.616;2022-07-17T11:42:30;100796.06;;;36.56;29.12
35716;BME280;21840;44.920;8.616;2022-07-17T11:44:56;100791.22;;;36.15;30.28
35716;BME280;21840;44.920;8.616;2022-07-17T11:47:24;100798.09;;;36.13;30.80
35716;BME280;21840;44.920;8.616;2022-07-17T11:49:50;100788.78;;;36.33;30.25
35716;BME280;21840;44.920;8.616;2022-07-17T11:52:20;100781.75;;;36.26;29.87
35716;BME280;21840;44.920;8.616;2022-07-17T11:57:15;100783.91;;;36.30;29.37
35716;BME280;21840;44.920;8.616;2022-07-17T11:59:41;100780.47;;;36.38;29.50
35716;BME280;21840;44.920;8.616;2022-07-17T12:02:14;100778.00;;;36.55;29.03
35716;BME280;21840;44.920;8.616;2022-07-17T12:04:57;100773.81;;;36.77;28.69
35716;BME280;21840;44.920;8.616;2022-07-17T12:07:25;100771.78;;;36.68;28.83
35716;BME280;21840;44.920;8.616;2022-07-17T12:09:52;100776.09;;;36.88;29.10
35716;BME280;21840;44.920;8.616;2022-07-17T12:12:27;100775.97;;;36.80;29.21
35716;BME280;21840;44.920;8.616;2022-07-17T12:14:55;100770.50;;;36.80;29.36
35716;BME280;21840;44.920;8.616;2022-07-17T12:17:22;100764.34;;;37.02;28.81
35716;BME280;21840;44.920;8.616;2022-07-17T12:23:00;100757.69;;;37.22;28.49
35716;BME280;21840;44.920;8.616;2022-07-17T12:25:27;100775.63;;;37.14;28.43
35716;BME280;21840;44.920;8.616;2022-07-17T12:27:54;100770.88;;;36.73;28.97
35716;BME280;21840;44.920;8.616;2022-07-17T12:30:23;100762.38;;;36.75;29.20
35716;BME280;21840;44.920;8.616;2022-07-17T12:32:58;100767.97;;;36.69;29.01
35716;BME280;21840;44.920;8.616;2022-07-17T12:35:24;100755.06;;;36.37;29.19
35716;BME280;21840;44.920;8.616;2022-07-17T12:37:50;100763.56;;;36.68;28.17
35716;BME280;21840;44.920;8.616;2022-07-17T12:40:15;100760.28;;;36.99;28.34
35716;BME280;21840;44.920;8.616;2022-07-17T12:42:42;100760.72;;;37.20;28.21
35716;BME280;21840;44.920;8.616;2022-07-17T12:45:08;100761.28;;;36.89;29.33
35716;BME280;21840;44.920;8.616;2022-07-17T12:47:34;100770.41;;;36.99;29.77
35716;BME280;21840;44.920;8.616;2022-07-17T12:50:00;100752.09;;;37.27;29.39
35716;BME280;21840;44.920;8.616;2022-07-17T12:52:25;100753.84;;;37.23;28.70
35716;BME280;21840;44.920;8.616;2022-07-17T12:54:51;100746.59;;;36.99;29.44
35716;BME280;21840;44.920;8.616;2022-07-17T12:57:16;100746.91;;;36.98;28.90
35716;BME280;21840;44.920;8.616;2022-07-17T12:59:42;100748.16;;;37.05;28.97
35716;BME280;21840;44.920;8.616;2022-07-17T13:02:10;100754.72;;;37.04;28.35
35716;BME280;21840;44.920;8.616;2022-07-17T13:04:36;100749.47;;;37.22;28.00
35716;BME280;21840;44.920;8.616;2022-07-17T13:07:02;100750.50;;;37.12;28.12